createdAt,value
2022-09-15T00:01:41.167Z,8.29
2022-09-15T00:04:10.552Z,8.36
2022-09-15T00:06:39.358Z,8.26
2022-09-15T00:09:08.302Z,8.37
2022-09-15T00:11:38.605Z,8.30
2022-09-15T00:14:08.825Z,8.39
2022-09-15T00:16:37.894Z,8.27
2022-09-15T00:19:07.498Z,8.25
2022-09-15T00:21:39.291Z,8.33
2022-09-15T00:24:09.952Z,8.27
2022-09-15T00:26:39.443Z,8.20
2022-09-15T00:29:09.161Z,8.01
2022-09-15T00:31:37.851Z,8.23
2022-09-15T00:34:07.933Z,8.31
2022-09-15T00:36:36.742Z,8.17
2022-09-15T00:39:05.871Z,8.28
2022-09-15T00:41:34.965Z,8.14
2022-09-15T00:44:19.862Z,8.35
2022-09-15T00:47:15.347Z,8.25
2022-09-15T00:49:42.202Z,8.23
2022-09-15T00:52:26.675Z,8.17
2022-09-15T00:55:09.260Z,8.17
2022-09-15T00:57:42.842Z,8.19
2022-09-15T01:00:15.932Z,8.15
2022-09-15T01:02:47.339Z,8.24
2022-09-15T01:05:19.543Z,8.28
2022-09-15T01:07:52.277Z,8.37
2022-09-15T01:10:30.354Z,8.29
2022-09-15T01:13:03.455Z,8.32
2022-09-15T01:15:43.981Z,8.08
2022-09-15T01:18:30.935Z,8.19
2022-09-15T01:21:10.485Z,8.40
2022-09-15T01:23:59.400Z,8.45
2022-09-15T01:26:53.556Z,8.44
2022-09-15T01:29:40.878Z,8.50
2022-09-15T01:32:38.506Z,8.40
2022-09-15T01:35:26.687Z,8.42
2022-09-15T01:38:20.117Z,8.26
2022-09-15T01:41:11.253Z,8.65
2022-09-15T01:44:06.581Z,8.65
2022-09-15T01:46:38.843Z,8.62
2022-09-15T01:49:11.281Z,8.73
2022-09-15T01:51:41.908Z,8.63
2022-09-15T01:54:12.102Z,8.63
2022-09-15T01:56:42.669Z,8.88
2022-09-15T01:59:11.911Z,8.83
2022-09-15T02:01:45.495Z,8.93
2022-09-15T02:04:47.228Z,8.85
2022-09-15T02:07:21.177Z,9.10
2022-09-15T02:10:02.884Z,9.11
2022-09-15T02:12:38.393Z,9.19
2022-09-15T02:15:24.816Z,9.04
2022-09-15T02:17:55.940Z,9.27
2022-09-15T02:20:42.578Z,9.34
2022-09-15T02:23:20.448Z,9.41
2022-09-15T02:25:54.488Z,9.43
2022-09-15T02:28:29.662Z,9.30
2022-09-15T02:31:00.262Z,9.15
2022-09-15T02:33:34.686Z,9.45
2022-09-15T02:36:04.361Z,9.61
2022-09-15T02:38:38.830Z,9.68
2022-09-15T02:41:07.933Z,9.63
2022-09-15T02:43:49.006Z,9.68
2022-09-15T02:46:20.925Z,9.77
2022-09-15T02:48:49.860Z,9.56
2022-09-15T02:51:19.675Z,9.68
2022-09-15T02:53:48.348Z,9.92
2022-09-15T02:56:17.680Z,10.15
2022-09-15T02:58:46.481Z,9.91
2022-09-15T03:01:16.518Z,10.17
2022-09-15T03:03:46.719Z,10.25
2022-09-15T03:06:18.369Z,10.29
2022-09-15T03:08:57.178Z,10.42
2022-09-15T03:11:28.040Z,10.52
2022-09-15T03:14:02.416Z,10.57
2022-09-15T03:16:33.565Z,10.65
2022-09-15T03:19:02.823Z,10.62
2022-09-15T03:21:31.900Z,10.64
2022-09-15T03:24:01.203Z,10.80
2022-09-15T03:26:30.078Z,10.89
2022-09-15T03:28:58.878Z,10.93
2022-09-15T03:31:27.669Z,10.93
2022-09-15T03:33:56.821Z,11.05
2022-09-15T03:36:25.718Z,11.16
2022-09-15T03:39:00.959Z,11.34
2022-09-15T03:41:30.119Z,11.36
2022-09-15T03:43:58.754Z,11.35
2022-09-15T03:46:28.071Z,11.56
2022-09-15T03:48:56.625Z,11.56
2022-09-15T03:51:26.073Z,11.58
2022-09-15T03:53:56.883Z,11.78
2022-09-15T03:56:33.417Z,11.87
2022-09-15T03:59:04.043Z,12.00
2022-09-15T04:01:33.464Z,11.93
2022-09-15T04:04:02.731Z,12.07
2022-09-15T04:06:32.069Z,12.07
2022-09-15T04:09:03.463Z,12.19
2022-09-15T04:11:33.466Z,12.41
2022-09-15T04:14:02.056Z,12.41
2022-09-15T04:16:33.881Z,12.56
2022-09-15T04:19:02.873Z,12.47
2022-09-15T04:21:32.860Z,12.61
2022-09-15T04:24:01.855Z,12.47
2022-09-15T04:26:32.871Z,12.75
2022-09-15T04:29:04.672Z,12.92
2022-09-15T04:31:34.769Z,13.06
2022-09-15T04:34:03.754Z,13.07
2022-09-15T04:36:32.458Z,12.95
2022-09-15T04:39:01.100Z,13.04
2022-09-15T04:41:29.859Z,13.47
2022-09-15T04:43:59.103Z,13.41
2022-09-15T04:46:27.768Z,13.52
2022-09-15T04:48:59.040Z,13.59
2022-09-15T04:51:27.868Z,13.77
2022-09-15T04:53:56.592Z,13.93
2022-09-15T04:56:27.444Z,13.93
2022-09-15T04:59:03.586Z,14.16
2022-09-15T05:01:36.206Z,14.04
2022-09-15T05:04:05.945Z,14.13
2022-09-15T05:06:35.845Z,14.43
2022-09-15T05:09:10.319Z,14.44
2022-09-15T05:11:39.441Z,14.57
2022-09-15T05:14:08.939Z,14.61
2022-09-15T05:16:37.677Z,14.53
2022-09-15T05:19:06.419Z,14.73
2022-09-15T05:21:34.979Z,14.68
2022-09-15T05:24:03.707Z,14.87
2022-09-15T05:26:32.392Z,15.05
2022-09-15T05:29:01.191Z,15.14
2022-09-15T05:31:32.060Z,15.16
2022-09-15T05:34:03.615Z,15.35
2022-09-15T05:36:32.430Z,15.47
2022-09-15T05:39:02.484Z,15.65
2022-09-15T05:41:31.392Z,15.57
2022-09-15T05:44:00.248Z,15.80
2022-09-15T05:46:29.911Z,15.85
2022-09-15T05:48:59.579Z,15.89
2022-09-15T05:51:28.562Z,15.92
2022-09-15T05:53:57.621Z,15.84
2022-09-15T05:56:26.414Z,16.04
2022-09-15T05:58:54.915Z,16.11
2022-09-15T06:01:26.104Z,16.27
2022-09-15T06:03:55.929Z,16.35
2022-09-15T06:06:26.202Z,16.33
2022-09-15T06:08:58.841Z,16.41
2022-09-15T06:11:34.585Z,16.57
2022-09-15T06:14:04.222Z,16.57
2022-09-15T06:16:35.208Z,16.56
2022-09-15T06:19:04.120Z,16.29
2022-09-15T06:21:34.105Z,16.34
2022-09-15T06:24:05.281Z,16.47
2022-09-15T06:26:34.707Z,16.85
2022-09-15T06:29:05.828Z,17.28
2022-09-15T06:31:35.237Z,17.79
2022-09-15T06:34:04.727Z,18.03
2022-09-15T06:36:39.638Z,17.89
2022-09-15T06:39:09.328Z,17.89
2022-09-15T06:42:00.862Z,17.88
2022-09-15T06:44:29.956Z,18.03
2022-09-15T06:46:58.642Z,18.10
2022-09-15T06:49:27.448Z,18.19
2022-09-15T06:51:57.049Z,18.08
2022-09-15T06:54:25.868Z,17.99
2022-09-15T06:56:54.378Z,18.15
2022-09-15T06:59:25.422Z,18.08
2022-09-15T07:01:55.255Z,18.24
2022-09-15T07:04:24.044Z,18.21
2022-09-15T07:06:52.710Z,18.15
2022-09-15T07:09:21.217Z,18.24
2022-09-15T07:11:50.093Z,18.33
2022-09-15T07:14:18.743Z,18.31
2022-09-15T07:16:47.352Z,18.26
2022-09-15T07:19:16.173Z,18.17
2022-09-15T07:21:44.935Z,18.31
2022-09-15T07:24:13.699Z,18.32
2022-09-15T07:26:42.872Z,18.45
2022-09-15T07:29:11.382Z,18.53
2022-09-15T07:31:40.644Z,18.80
2022-09-15T07:34:09.256Z,18.90
2022-09-15T07:36:37.991Z,18.95
2022-09-15T07:39:07.092Z,19.13
2022-09-15T07:41:35.855Z,19.19
2022-09-15T07:44:04.715Z,19.13
2022-09-15T07:46:34.049Z,19.18
2022-09-15T07:49:03.895Z,19.18
2022-09-15T07:51:32.622Z,19.32
2022-09-15T07:54:01.458Z,19.35
2022-09-15T07:56:30.248Z,19.44
2022-09-15T07:58:59.006Z,19.23
2022-09-15T08:01:27.804Z,19.11
2022-09-15T08:03:56.808Z,19.04
2022-09-15T08:06:27.563Z,18.89
2022-09-15T08:09:00.822Z,18.69
2022-09-15T08:11:30.201Z,18.78
2022-09-15T08:14:03.118Z,18.75
2022-09-15T08:16:31.867Z,18.67
2022-09-15T08:19:00.847Z,18.66
2022-09-15T08:21:30.011Z,18.69
2022-09-15T08:24:00.497Z,18.77
2022-09-15T08:26:30.419Z,18.85
2022-09-15T08:28:59.320Z,19.17
2022-09-15T08:31:27.882Z,19.25
2022-09-15T08:33:56.972Z,19.32
2022-09-15T08:36:28.433Z,19.46
2022-09-15T08:38:57.482Z,19.37
2022-09-15T08:41:34.458Z,19.44
2022-09-15T08:44:32.710Z,19.66
2022-09-15T08:47:18.806Z,19.43
2022-09-15T08:50:08.769Z,19.54
2022-09-15T08:52:45.153Z,19.35
2022-09-15T08:55:35.823Z,19.43
2022-09-15T08:58:06.606Z,19.54
2022-09-15T09:00:35.225Z,19.55
2022-09-15T09:03:20.470Z,19.58
2022-09-15T09:06:10.297Z,19.66
2022-09-15T09:08:57.020Z,19.63
2022-09-15T09:11:52.755Z,19.57
2022-09-15T09:14:55.611Z,19.70
2022-09-15T09:17:34.916Z,19.61
2022-09-15T09:20:09.590Z,19.79
2022-09-15T09:22:40.080Z,19.72
2022-09-15T09:25:26.593Z,19.71
2022-09-15T09:27:59.257Z,19.63
2022-09-15T09:30:33.263Z,19.42
2022-09-15T09:33:01.984Z,19.38
2022-09-15T09:35:53.119Z,19.31
2022-09-15T09:38:44.042Z,19.33
2022-09-15T09:41:17.588Z,19.25
2022-09-15T09:43:49.588Z,19.21
2022-09-15T09:46:19.900Z,19.19
2022-09-15T09:49:03.359Z,19.09
2022-09-15T09:51:49.777Z,19.35
2022-09-15T09:54:21.139Z,19.16
2022-09-15T09:56:51.939Z,19.12
2022-09-15T09:59:42.980Z,19.12
2022-09-15T10:02:47.830Z,18.89
2022-09-15T10:05:20.939Z,18.65
2022-09-15T10:07:49.821Z,18.87
2022-09-15T10:10:26.712Z,19.06
2022-09-15T10:13:00.394Z,19.08
2022-09-15T10:15:34.768Z,19.03
2022-09-15T10:18:03.898Z,19.02
2022-09-15T10:20:56.888Z,18.84
2022-09-15T10:23:33.634Z,18.73
2022-09-15T10:26:32.552Z,18.83
2022-09-15T10:29:18.786Z,18.69
2022-09-15T10:31:47.668Z,18.68
2022-09-15T10:34:31.552Z,18.79
2022-09-15T10:37:26.533Z,18.83
2022-09-15T10:39:57.234Z,18.72
2022-09-15T10:42:54.435Z,18.69
2022-09-15T10:45:40.430Z,18.78
2022-09-15T10:48:24.197Z,18.77
2022-09-15T10:51:18.137Z,18.69
2022-09-15T10:53:49.901Z,18.76
2022-09-15T10:56:56.318Z,18.61
2022-09-15T10:59:49.140Z,18.72
2022-09-15T11:02:51.554Z,18.61
2022-09-15T11:05:35.689Z,18.57
2022-09-15T11:08:23.340Z,18.54
2022-09-15T11:11:18.696Z,18.50
2022-09-15T11:13:47.091Z,18.50
2022-09-15T11:16:27.809Z,18.54
2022-09-15T11:19:05.478Z,18.52
2022-09-15T11:21:37.969Z,18.34
2022-09-15T11:24:27.474Z,18.32
2022-09-15T11:27:19.189Z,18.34
2022-09-15T11:30:08.325Z,18.34
2022-09-15T11:32:43.311Z,18.21
2022-09-15T11:35:35.457Z,17.79
2022-09-15T11:38:18.870Z,17.89
2022-09-15T11:40:58.171Z,17.70
2022-09-15T11:43:49.588Z,17.45
2022-09-15T11:46:26.783Z,17.39
2022-09-15T11:49:21.754Z,17.27
2022-09-15T11:52:03.937Z,17.04
2022-09-15T11:54:50.491Z,16.91
2022-09-15T11:57:29.409Z,16.85
2022-09-15T12:00:12.253Z,16.92
2022-09-15T12:02:52.527Z,16.59
2022-09-15T12:05:33.338Z,16.71
2022-09-15T12:09:01.569Z,16.78
2022-09-15T12:11:35.273Z,16.71
2022-09-15T12:14:09.100Z,16.70
2022-09-15T12:16:38.734Z,16.61
2022-09-15T12:19:41.165Z,16.76
2022-09-15T12:22:32.755Z,16.73
2022-09-15T12:25:07.420Z,16.71
2022-09-15T12:27:35.778Z,16.58
2022-09-15T12:30:06.683Z,16.55
2022-09-15T12:32:35.797Z,16.50
2022-09-15T12:35:32.677Z,16.40
2022-09-15T12:38:02.076Z,16.36
2022-09-15T12:40:37.877Z,16.28
2022-09-15T12:43:13.573Z,16.10
2022-09-15T12:45:45.893Z,15.96
2022-09-15T12:48:25.582Z,15.77
2022-09-15T12:50:57.150Z,15.67
2022-09-15T12:56:22.315Z,15.24
2022-09-15T12:58:52.776Z,15.16
2022-09-15T13:01:25.304Z,15.02
2022-09-15T13:03:56.050Z,14.85
2022-09-15T13:06:35.361Z,14.58
2022-09-15T13:09:06.660Z,14.48
2022-09-15T13:11:37.714Z,14.28
2022-09-15T13:14:09.239Z,14.10
2022-09-15T13:17:03.949Z,13.97
2022-09-15T13:19:42.716Z,13.81
2022-09-15T13:22:21.137Z,13.64
2022-09-15T13:25:04.465Z,13.51
2022-09-15T13:27:43.045Z,13.36
2022-09-15T13:30:29.903Z,13.23
2022-09-15T13:33:20.123Z,13.03
2022-09-15T13:36:26.595Z,12.90
2022-09-15T13:39:34.285Z,12.74
2022-09-15T13:42:23.376Z,12.59
2022-09-15T13:45:26.275Z,12.26
2022-09-15T13:48:31.885Z,12.15
2022-09-15T13:51:07.943Z,11.92
2022-09-15T13:53:48.677Z,11.90
2022-09-15T13:56:31.943Z,11.83
2022-09-15T13:59:10.279Z,11.69
2022-09-15T14:01:43.852Z,11.60
2022-09-15T14:04:18.228Z,11.57
2022-09-15T14:06:51.517Z,11.46
2022-09-15T14:09:26.445Z,11.32
2022-09-15T14:12:00.315Z,11.21
2022-09-15T14:14:29.766Z,11.08
2022-09-15T14:16:58.570Z,10.96
2022-09-15T14:19:48.227Z,10.60
2022-09-15T14:22:32.040Z,10.81
2022-09-15T14:25:06.841Z,10.76
2022-09-15T14:27:36.830Z,10.56
2022-09-15T14:30:18.025Z,10.56
2022-09-15T14:32:53.041Z,10.43
2022-09-15T14:35:43.709Z,10.12
2022-09-15T14:38:24.212Z,10.23
2022-09-15T14:40:55.419Z,10.30
2022-09-15T14:43:37.227Z,10.20
2022-09-15T14:46:13.081Z,10.33
2022-09-15T14:48:41.890Z,10.17
2022-09-15T14:51:24.767Z,10.06
2022-09-15T14:53:57.654Z,9.80
2022-09-15T14:56:30.954Z,9.96
2022-09-15T14:59:11.490Z,9.91
2022-09-15T15:01:44.424Z,9.65
2022-09-15T15:04:25.299Z,9.83
2022-09-15T15:07:05.711Z,9.73
2022-09-15T15:09:49.743Z,9.57
2022-09-15T15:13:05.950Z,9.50
2022-09-15T15:15:35.171Z,9.46
2022-09-15T15:18:30.974Z,9.33
2022-09-15T15:21:00.932Z,9.30
2022-09-15T15:23:30.003Z,9.22
2022-09-15T15:26:26.840Z,9.11
2022-09-15T15:28:55.649Z,9.01
2022-09-15T15:31:27.524Z,8.78
2022-09-15T15:34:05.971Z,8.84
2022-09-15T15:36:37.418Z,8.80
2022-09-15T15:39:20.524Z,8.72
2022-09-15T15:44:22.876Z,8.85
2022-09-15T15:47:04.479Z,8.75
2022-09-15T15:49:33.299Z,8.82
2022-09-15T15:52:02.634Z,8.68
2022-09-15T15:54:34.719Z,8.57
2022-09-15T15:57:26.472Z,8.63
2022-09-15T15:59:59.990Z,8.74
2022-09-15T16:02:28.712Z,8.68
2022-09-15T16:04:59.514Z,8.34
2022-09-15T16:07:33.402Z,8.34
2022-09-15T16:10:02.882Z,8.26
2022-09-15T16:12:34.707Z,8.28
2022-09-15T16:15:11.438Z,8.31
2022-09-15T16:17:44.416Z,8.24
2022-09-15T16:20:17.555Z,8.11
2022-09-15T16:22:46.670Z,7.74
2022-09-15T16:25:33.849Z,8.11
2022-09-15T16:28:06.278Z,7.89
2022-09-15T16:30:35.800Z,8.07
2022-09-15T16:33:04.955Z,7.93
2022-09-15T16:35:46.734Z,7.91
2022-09-15T16:38:15.377Z,7.87
2022-09-15T16:40:47.697Z,7.83
2022-09-15T16:43:22.239Z,7.94
2022-09-15T16:45:52.411Z,7.77
2022-09-15T16:48:21.812Z,7.80
2022-09-15T16:53:42.371Z,7.37
2022-09-15T16:56:13.121Z,7.65
2022-09-15T16:58:42.960Z,7.62
2022-09-15T17:01:19.463Z,7.76
2022-09-15T17:03:49.297Z,7.72
2022-09-15T17:06:19.523Z,7.62
2022-09-15T17:08:48.354Z,7.65
2022-09-15T17:11:19.829Z,7.63
2022-09-15T17:13:48.768Z,7.57
2022-09-15T17:16:20.432Z,7.51
2022-09-15T17:18:49.848Z,7.51
2022-09-15T17:21:20.337Z,7.31
2022-09-15T17:23:50.667Z,7.18
2022-09-15T17:26:22.430Z,7.18
2022-09-15T17:28:52.034Z,7.24
2022-09-15T17:31:24.245Z,7.08
2022-09-15T17:33:53.354Z,7.04
2022-09-15T17:36:22.132Z,6.85
2022-09-15T17:38:50.702Z,6.78
2022-09-15T17:41:21.438Z,6.80
2022-09-15T17:43:50.190Z,6.77
2022-09-15T17:46:19.286Z,6.93
2022-09-15T17:48:48.168Z,6.90
2022-09-15T17:51:19.232Z,6.77
2022-09-15T17:53:50.578Z,6.48
2022-09-15T17:56:21.035Z,6.57
2022-09-15T17:58:50.461Z,6.59
2022-09-15T18:01:19.194Z,6.63
2022-09-15T18:03:50.916Z,6.51
2022-09-15T18:06:19.658Z,6.42
2022-09-15T18:08:48.410Z,6.23
2022-09-15T18:11:17.007Z,6.12
2022-09-15T18:13:45.963Z,6.32
2022-09-15T18:16:15.769Z,6.17
2022-09-15T18:18:44.685Z,6.12
2022-09-15T18:21:26.381Z,6.12
2022-09-15T18:23:56.703Z,6.17
2022-09-15T18:26:26.565Z,6.15
2022-09-15T18:28:55.648Z,6.13
2022-09-15T18:31:24.375Z,6.11
2022-09-15T18:33:53.346Z,6.05
2022-09-15T18:36:24.053Z,6.17
2022-09-15T18:38:55.550Z,5.99
2022-09-15T18:41:24.073Z,5.68
2022-09-15T18:43:52.857Z,5.92
2022-09-15T18:46:21.757Z,5.95
2022-09-15T18:48:50.476Z,5.85
2022-09-15T18:51:28.936Z,5.76
2022-09-15T18:54:03.820Z,5.70
2022-09-15T18:56:32.839Z,5.60
2022-09-15T18:59:02.290Z,5.73
2022-09-15T19:01:31.203Z,5.70
2022-09-15T19:04:00.966Z,5.63
2022-09-15T19:06:30.210Z,5.50
2022-09-15T19:08:59.749Z,5.60
2022-09-15T19:11:29.877Z,5.31
2022-09-15T19:13:58.781Z,5.37
2022-09-15T19:16:46.717Z,5.29
2022-09-15T19:19:18.128Z,5.29
2022-09-15T19:21:47.180Z,5.42
2022-09-15T19:24:16.963Z,5.21
2022-09-15T19:26:48.086Z,5.24
2022-09-15T19:29:17.197Z,5.23
2022-09-15T19:31:47.398Z,5.27
2022-09-15T19:34:22.852Z,5.20
2022-09-15T19:36:52.478Z,5.25
2022-09-15T19:39:21.214Z,5.16
2022-09-15T19:41:50.019Z,5.06
2022-09-15T19:44:18.929Z,4.75
2022-09-15T19:46:47.629Z,5.02
2022-09-15T19:49:16.259Z,5.08
2022-09-15T19:51:45.108Z,4.83
2022-09-15T19:54:14.410Z,4.95
2022-09-15T19:56:43.209Z,4.93
2022-09-15T19:59:11.797Z,4.72
2022-09-15T20:01:40.563Z,4.75
2022-09-15T20:04:10.983Z,4.80
2022-09-15T20:06:40.155Z,4.79
2022-09-15T20:09:09.575Z,4.77
2022-09-15T20:11:38.486Z,4.73
2022-09-15T20:14:07.488Z,4.44
2022-09-15T20:16:36.204Z,4.49
2022-09-15T20:19:05.478Z,4.49
2022-09-15T20:21:52.279Z,4.51
2022-09-15T20:24:22.964Z,4.57
2022-09-15T20:26:52.071Z,4.24
2022-09-15T20:29:21.684Z,4.50
2022-09-15T20:31:50.295Z,4.46
2022-09-15T20:34:22.003Z,4.45
2022-09-15T20:36:50.586Z,4.28
2022-09-15T20:39:23.077Z,4.42
2022-09-15T20:41:52.191Z,4.45
2022-09-15T20:44:20.924Z,4.39
2022-09-15T20:46:49.808Z,4.37
2022-09-15T20:49:18.498Z,4.33
2022-09-15T20:51:47.377Z,4.44
2022-09-15T20:54:16.444Z,4.26
2022-09-15T20:56:45.023Z,4.19
2022-09-15T20:59:14.970Z,4.28
2022-09-15T21:01:44.238Z,4.31
2022-09-15T21:04:13.191Z,4.35
2022-09-15T21:06:42.057Z,4.48
2022-09-15T21:09:11.455Z,4.25
2022-09-15T21:11:40.778Z,4.36
2022-09-15T21:14:11.869Z,4.24
2022-09-15T21:16:41.344Z,4.15
2022-09-15T21:19:10.821Z,4.11
2022-09-15T21:21:40.022Z,4.09
2022-09-15T21:24:09.438Z,4.01
2022-09-15T21:26:59.479Z,4.02
2022-09-15T21:29:29.547Z,3.95
2022-09-15T21:31:58.570Z,3.84
2022-09-15T21:34:27.838Z,3.85
2022-09-15T21:36:56.606Z,3.91
2022-09-15T21:39:25.390Z,3.82
2022-09-15T21:41:54.938Z,3.67
2022-09-15T21:44:23.618Z,3.71
2022-09-15T21:46:53.645Z,3.75
2022-09-15T21:49:22.497Z,3.57
2022-09-15T21:51:51.570Z,3.72
2022-09-15T21:54:20.122Z,3.59
2022-09-15T21:56:48.841Z,3.69
2022-09-15T21:59:19.171Z,3.55
2022-09-15T22:01:47.780Z,3.62
2022-09-15T22:04:16.558Z,3.66
2022-09-15T22:06:45.812Z,3.67
2022-09-15T22:09:16.557Z,3.75
2022-09-15T22:11:45.620Z,3.58
2022-09-15T22:14:15.419Z,3.60
2022-09-15T22:16:44.363Z,3.61
2022-09-15T22:19:14.357Z,3.62
2022-09-15T22:21:43.261Z,3.60
2022-09-15T22:24:14.336Z,3.44
2022-09-15T22:26:44.319Z,3.50
2022-09-15T22:29:13.508Z,3.43
2022-09-15T22:31:42.865Z,3.33
2022-09-15T22:34:11.846Z,2.51
2022-09-15T22:36:40.798Z,3.38
2022-09-15T22:39:10.084Z,3.25
2022-09-15T22:41:40.096Z,3.43
2022-09-15T22:44:19.609Z,3.29
2022-09-15T22:46:50.955Z,3.24
2022-09-15T22:49:20.301Z,3.11
2022-09-15T22:51:49.074Z,3.16
2022-09-15T22:54:17.854Z,3.07
2022-09-15T22:56:49.620Z,3.13
2022-09-15T22:59:18.660Z,2.82
2022-09-15T23:01:49.531Z,2.80
2022-09-15T23:04:18.578Z,3.00
2022-09-15T23:06:49.599Z,2.70
2022-09-15T23:09:18.485Z,2.96
2022-09-15T23:11:47.381Z,2.89
2022-09-15T23:14:18.112Z,2.90
2022-09-15T23:16:49.448Z,2.72
2022-09-15T23:19:18.247Z,2.85
2022-09-15T23:21:47.338Z,2.67
2022-09-15T23:24:17.814Z,2.70
2022-09-15T23:26:46.735Z,2.70
2022-09-15T23:29:15.805Z,2.71
2022-09-15T23:31:44.524Z,2.62
2022-09-15T23:34:13.567Z,2.71
2022-09-15T23:36:42.210Z,2.65
2022-09-15T23:39:11.283Z,2.49
2022-09-15T23:41:41.527Z,2.57
2022-09-15T23:44:10.204Z,2.30
2022-09-15T23:46:39.153Z,2.34
2022-09-15T23:49:07.973Z,2.47
2022-09-15T23:51:36.956Z,2.49
2022-09-15T23:54:05.879Z,2.52
2022-09-15T23:56:34.792Z,2.39
2022-09-15T23:59:03.666Z,2.54
